aviador You're here:

KSAV Decoded Metar

SAVANNAH in GA, USA
Report Time2018-01-21 05:53:00
UTC Time2018-01-21 06:43:54
Flight Rules vfr VFR
WindCalm
Visibility9999 m
Phenomena:N/A
Clouds:N/A
Expected CloudBase > 4,400 ft AGL from Temp-Dew spread
CeilingNone
Temp09°C (ISA -6)
Dew Point-2°C (46% RH)
AAT6.7°C
QNH1025 hPa
Density Alt-994 ft
Elevation46 ft
Report Wrong Elevation
Raw Report
KSAV 210553Z AUTO 00000KT 10SM CLR 09/M02 A3026 RMK AO2 SLP246
T00941022 10122 20078 58009=

Extra information for KSAV:More info

Metar Taf Metar & Taf Last 4 Metars F.Rules Stats Wind Profile Meteogram Temp Stats Airport Information Weather charts Add Link Nearby VenuesMetar ALERT Operation Metar Decoded Social comments

AIRNAV info for KSAV